createdAt,value
2022-09-30T00:01:37.252Z,1.30
2022-09-30T00:04:06.232Z,1.20
2022-09-30T00:06:36.182Z,1.45
2022-09-30T00:09:05.106Z,1.48
2022-09-30T00:11:35.208Z,1.35
2022-09-30T00:14:03.756Z,1.30
2022-09-30T00:16:37.314Z,1.20
2022-09-30T00:19:06.215Z,1.25
2022-09-30T00:21:35.025Z,1.30
2022-09-30T00:24:03.905Z,1.60
2022-09-30T00:26:32.680Z,1.67
2022-09-30T00:29:01.821Z,1.70
2022-09-30T00:31:31.810Z,1.20
2022-09-30T00:34:11.677Z,1.50
2022-09-30T00:36:44.631Z,1.40
2022-09-30T00:39:14.742Z,1.45
2022-09-30T00:41:46.244Z,1.30
2022-09-30T00:44:33.157Z,1.35
2022-09-30T00:47:01.592Z,1.40
2022-09-30T00:49:31.485Z,1.30
2022-09-30T00:52:00.182Z,1.20
2022-09-30T00:54:31.324Z,1.48
2022-09-30T00:57:01.128Z,1.35
2022-09-30T00:59:33.371Z,1.20
2022-09-30T01:02:02.525Z,1.20
2022-09-30T01:04:33.377Z,1.20
2022-09-30T01:07:02.640Z,1.13
2022-09-30T01:09:31.088Z,1.08
2022-09-30T01:11:59.894Z,1.27
2022-09-30T01:14:29.987Z,1.27
2022-09-30T01:17:03.247Z,0.98
2022-09-30T01:19:41.798Z,1.40
2022-09-30T01:22:16.384Z,1.20
2022-09-30T01:24:59.664Z,1.20
2022-09-30T01:27:34.941Z,1.02
2022-09-30T01:30:09.247Z,1.20
2022-09-30T01:32:46.612Z,1.40
2022-09-30T01:35:19.611Z,1.20
2022-09-30T01:37:52.604Z,1.35
2022-09-30T01:40:25.865Z,1.50
2022-09-30T01:42:57.769Z,1.10
2022-09-30T01:45:32.643Z,1.17
2022-09-30T01:48:05.072Z,1.30
2022-09-30T01:50:36.354Z,1.30
2022-09-30T01:53:10.797Z,1.10
2022-09-30T01:55:42.140Z,1.40
2022-09-30T01:58:13.093Z,1.23
2022-09-30T02:00:44.133Z,1.20
2022-09-30T02:03:17.845Z,1.40
2022-09-30T02:05:51.117Z,1.30
2022-09-30T02:08:21.304Z,1.55
2022-09-30T02:10:53.069Z,1.40
2022-09-30T02:13:23.989Z,1.30
2022-09-30T02:15:55.536Z,1.25
2022-09-30T02:18:29.188Z,1.40
2022-09-30T02:21:00.390Z,1.40
2022-09-30T02:23:29.800Z,1.42
2022-09-30T02:26:01.820Z,1.65
2022-09-30T02:28:31.135Z,1.20
2022-09-30T02:31:02.042Z,1.33
2022-09-30T02:33:34.334Z,1.40
2022-09-30T02:36:06.068Z,1.27
2022-09-30T02:38:37.144Z,1.33
2022-09-30T02:41:08.104Z,1.40
2022-09-30T02:43:36.708Z,1.30
2022-09-30T02:46:07.930Z,1.10
2022-09-30T02:48:40.956Z,1.40
2022-09-30T02:51:13.494Z,1.38
2022-09-30T02:53:45.820Z,1.17
2022-09-30T02:56:19.531Z,1.30
2022-09-30T02:58:48.286Z,1.30
2022-09-30T03:01:18.071Z,1.40
2022-09-30T03:03:49.223Z,1.30
2022-09-30T03:06:18.125Z,1.40
2022-09-30T03:08:47.159Z,1.30
2022-09-30T03:11:17.416Z,1.23
2022-09-30T03:13:57.527Z,1.25
2022-09-30T03:16:32.995Z,1.60
2022-09-30T03:19:15.372Z,1.60
2022-09-30T03:21:51.812Z,1.40
2022-09-30T03:24:40.020Z,1.58
2022-09-30T03:27:14.698Z,1.20
2022-09-30T03:29:47.201Z,1.50
2022-09-30T03:32:23.721Z,1.70
2022-09-30T03:35:01.779Z,1.50
2022-09-30T03:37:33.546Z,1.10
2022-09-30T03:40:07.848Z,1.50
2022-09-30T03:42:39.191Z,1.30
2022-09-30T03:45:09.465Z,1.50
2022-09-30T03:47:42.695Z,1.30
2022-09-30T03:50:14.095Z,1.50
2022-09-30T03:52:42.649Z,1.73
2022-09-30T03:55:11.759Z,1.25
2022-09-30T03:57:40.800Z,1.67
2022-09-30T04:00:09.815Z,1.30
2022-09-30T04:02:38.245Z,1.20
2022-09-30T04:05:07.117Z,1.60
2022-09-30T04:07:37.045Z,1.30
2022-09-30T04:10:05.814Z,1.45
2022-09-30T04:12:34.231Z,1.65
2022-09-30T04:15:02.617Z,1.38
2022-09-30T04:17:32.268Z,1.42
2022-09-30T04:20:00.663Z,1.40
2022-09-30T04:22:29.099Z,1.50
2022-09-30T04:24:58.865Z,1.30
2022-09-30T04:27:27.443Z,1.40
2022-09-30T04:29:55.832Z,1.67
2022-09-30T04:32:25.769Z,1.50
2022-09-30T04:34:54.726Z,1.40
2022-09-30T04:37:24.174Z,1.50
2022-09-30T04:39:52.553Z,1.67
2022-09-30T04:42:22.335Z,1.40
2022-09-30T04:44:51.093Z,1.70
2022-09-30T04:47:19.485Z,1.58
2022-09-30T04:49:47.901Z,1.65
2022-09-30T04:52:16.294Z,1.52
2022-09-30T04:54:44.673Z,2.20
2022-09-30T04:57:14.076Z,1.60
2022-09-30T04:59:44.156Z,1.55
2022-09-30T05:02:12.876Z,1.48
2022-09-30T05:04:41.329Z,1.45
2022-09-30T05:07:09.765Z,1.67
2022-09-30T05:09:38.222Z,1.70
2022-09-30T05:12:06.662Z,1.50
2022-09-30T05:14:35.078Z,1.35
2022-09-30T05:17:04.844Z,1.50
2022-09-30T05:19:33.236Z,1.80
2022-09-30T05:22:01.681Z,1.50
2022-09-30T05:24:31.017Z,1.60
2022-09-30T05:26:59.521Z,1.73
2022-09-30T05:29:27.906Z,1.70
2022-09-30T05:31:56.381Z,1.70
2022-09-30T05:34:26.333Z,1.90
2022-09-30T05:36:54.749Z,1.60
2022-09-30T05:39:23.213Z,1.75
2022-09-30T05:41:51.674Z,1.67
2022-09-30T05:44:21.013Z,1.60
2022-09-30T05:46:49.447Z,1.60
2022-09-30T05:49:18.290Z,2.03
2022-09-30T05:51:48.122Z,1.60
2022-09-30T05:54:16.516Z,1.98
2022-09-30T05:56:44.944Z,2.00
2022-09-30T05:59:13.397Z,1.65
2022-09-30T06:01:41.815Z,1.80
2022-09-30T06:04:10.287Z,1.90
2022-09-30T06:06:38.968Z,1.90
2022-09-30T06:09:08.832Z,1.65
2022-09-30T06:11:37.279Z,1.73
2022-09-30T06:14:05.652Z,1.60
2022-09-30T06:16:34.162Z,1.70
2022-09-30T06:19:02.595Z,1.98
2022-09-30T06:21:30.991Z,1.67
2022-09-30T06:23:59.730Z,1.88
2022-09-30T06:26:29.613Z,2.20
2022-09-30T06:28:58.055Z,2.08
2022-09-30T06:31:26.523Z,2.03
2022-09-30T06:33:55.011Z,1.85
2022-09-30T06:36:23.416Z,2.30
2022-09-30T06:38:54.305Z,2.03
2022-09-30T06:41:24.537Z,1.80
2022-09-30T06:43:57.531Z,1.80
2022-09-30T06:46:33.626Z,1.52
2022-09-30T06:49:12.875Z,2.13
2022-09-30T06:51:42.333Z,1.60
2022-09-30T06:54:11.008Z,1.85
2022-09-30T06:56:39.739Z,1.83
2022-09-30T06:59:09.504Z,1.83
2022-09-30T07:01:38.259Z,2.00
2022-09-30T07:04:09.705Z,1.67
2022-09-30T07:06:39.086Z,1.98
2022-09-30T07:09:08.022Z,1.65
2022-09-30T07:11:37.765Z,1.70
2022-09-30T07:14:06.490Z,2.15
2022-09-30T07:16:36.462Z,1.90
2022-09-30T07:19:05.267Z,1.92
2022-09-30T07:21:33.776Z,1.88
2022-09-30T07:24:02.346Z,2.08
2022-09-30T07:26:31.271Z,2.17
2022-09-30T07:29:01.270Z,1.95
2022-09-30T07:31:34.643Z,2.65
2022-09-30T07:34:07.303Z,1.90
2022-09-30T07:36:37.167Z,2.03
2022-09-30T07:39:06.789Z,1.98
2022-09-30T07:41:36.631Z,1.92
2022-09-30T07:44:06.341Z,1.95
2022-09-30T07:46:36.285Z,1.75
2022-09-30T07:49:08.779Z,1.60
2022-09-30T07:51:38.430Z,1.70
2022-09-30T07:54:07.664Z,1.92
2022-09-30T07:56:58.162Z,1.70
2022-09-30T07:59:28.015Z,1.98
2022-09-30T08:01:56.923Z,2.15
2022-09-30T08:04:27.423Z,2.00
2022-09-30T08:06:57.239Z,1.80
2022-09-30T08:09:26.517Z,2.08
2022-09-30T08:11:55.276Z,1.73
2022-09-30T08:14:24.993Z,1.80
2022-09-30T08:16:53.682Z,1.75
2022-09-30T08:19:23.277Z,2.00
2022-09-30T08:21:54.212Z,1.83
2022-09-30T08:24:23.276Z,1.80
2022-09-30T08:26:51.956Z,1.98
2022-09-30T08:29:42.390Z,1.90
2022-09-30T08:32:09.212Z,1.50
2022-09-30T08:34:37.700Z,1.73
2022-09-30T08:37:09.671Z,2.00
2022-09-30T08:39:38.451Z,1.75
2022-09-30T08:42:35.431Z,1.80
2022-09-30T08:45:10.581Z,1.90
2022-09-30T08:47:46.046Z,2.17
2022-09-30T08:50:17.880Z,2.10
2022-09-30T08:52:49.472Z,1.63
2022-09-30T08:55:23.712Z,2.00
2022-09-30T08:57:52.636Z,2.00
2022-09-30T09:00:22.667Z,3.10
2022-09-30T09:02:52.747Z,3.03
2022-09-30T09:05:30.464Z,3.67
2022-09-30T09:08:05.970Z,4.13
2022-09-30T09:10:38.774Z,4.65
2022-09-30T09:13:10.831Z,3.83
2022-09-30T09:15:44.119Z,3.72
2022-09-30T09:18:35.431Z,3.33
2022-09-30T09:21:10.542Z,3.00
2022-09-30T09:23:40.495Z,2.60
2022-09-30T09:26:10.969Z,2.45
2022-09-30T09:28:44.032Z,2.40
2022-09-30T09:31:17.233Z,2.10
2022-09-30T09:33:47.181Z,2.00
2022-09-30T09:36:21.331Z,1.92
2022-09-30T09:38:59.061Z,1.85
2022-09-30T09:41:33.624Z,1.73
2022-09-30T09:44:04.736Z,1.70
2022-09-30T09:46:35.173Z,1.77
2022-09-30T09:49:29.575Z,1.67
2022-09-30T09:52:03.264Z,1.75
2022-09-30T09:54:36.113Z,1.95
2022-09-30T09:57:09.405Z,2.00
2022-09-30T09:59:38.007Z,1.85
2022-09-30T10:02:24.062Z,1.70
2022-09-30T10:05:00.112Z,1.80
2022-09-30T10:07:30.048Z,1.70
2022-09-30T10:10:09.742Z,1.38
2022-09-30T10:12:38.174Z,1.55
2022-09-30T10:15:13.903Z,1.50
2022-09-30T10:17:42.756Z,1.42
2022-09-30T10:20:20.865Z,1.60
2022-09-30T10:22:49.585Z,1.30
2022-09-30T10:25:26.576Z,1.42
2022-09-30T10:27:56.670Z,1.58
2022-09-30T10:30:36.021Z,1.40
2022-09-30T10:33:05.409Z,1.75
2022-09-30T10:35:33.884Z,1.73
2022-09-30T10:38:02.610Z,1.63
2022-09-30T10:40:32.450Z,1.60
2022-09-30T10:43:00.841Z,1.70
2022-09-30T10:45:32.096Z,1.70
2022-09-30T10:48:01.899Z,1.30
2022-09-30T10:50:30.337Z,1.40
2022-09-30T10:53:00.039Z,1.40
2022-09-30T10:55:30.316Z,1.40
2022-09-30T10:58:02.448Z,1.50
2022-09-30T11:00:34.519Z,1.50
2022-09-30T11:03:05.540Z,1.25
2022-09-30T11:05:35.327Z,1.50
2022-09-30T11:08:05.688Z,1.33
2022-09-30T11:10:38.379Z,1.40
2022-09-30T11:13:09.431Z,1.58
2022-09-30T11:15:42.282Z,1.70
2022-09-30T11:18:17.229Z,1.35
2022-09-30T11:20:47.745Z,1.10
2022-09-30T11:23:20.890Z,1.10
2022-09-30T11:25:51.702Z,1.30
2022-09-30T11:28:28.822Z,1.40
2022-09-30T11:31:07.010Z,1.40
2022-09-30T11:33:45.574Z,1.42
2022-09-30T11:36:19.167Z,1.27
2022-09-30T11:38:59.234Z,1.27
2022-09-30T11:41:30.559Z,1.40
2022-09-30T11:44:05.513Z,1.30
2022-09-30T11:46:51.578Z,1.40
2022-09-30T11:49:28.295Z,1.48
2022-09-30T11:52:01.885Z,1.30
2022-09-30T11:54:35.905Z,1.60
2022-09-30T11:57:07.374Z,1.25
2022-09-30T11:59:40.657Z,1.30
2022-09-30T12:02:15.772Z,1.50
2022-09-30T12:04:45.776Z,1.30
2022-09-30T12:07:18.128Z,1.50
2022-09-30T12:09:48.232Z,1.58
2022-09-30T12:12:19.043Z,1.60
2022-09-30T12:14:51.744Z,1.30
2022-09-30T12:17:23.955Z,1.40
2022-09-30T12:19:55.501Z,1.45
2022-09-30T12:22:26.127Z,1.20
2022-09-30T12:24:54.511Z,1.40
2022-09-30T12:27:25.120Z,1.27
2022-09-30T12:30:16.102Z,1.40
2022-09-30T12:33:02.104Z,1.60
2022-09-30T12:35:43.535Z,2.35
2022-09-30T12:38:18.359Z,1.60
2022-09-30T12:40:53.294Z,1.40
2022-09-30T12:43:30.564Z,1.40
2022-09-30T12:46:10.581Z,1.30
2022-09-30T12:48:40.792Z,1.60
2022-09-30T12:51:09.557Z,1.30
2022-09-30T12:53:39.558Z,1.60
2022-09-30T12:56:09.398Z,1.45
2022-09-30T12:58:38.953Z,1.40
2022-09-30T13:01:13.683Z,1.20
2022-09-30T13:03:50.684Z,1.33
2022-09-30T13:06:27.588Z,1.10
2022-09-30T13:09:13.921Z,1.30
2022-09-30T13:11:44.231Z,1.20
2022-09-30T13:14:30.601Z,1.30
2022-09-30T13:17:05.217Z,1.50
2022-09-30T13:19:36.361Z,1.40
2022-09-30T13:22:29.767Z,1.40
2022-09-30T13:25:13.650Z,1.25
2022-09-30T13:27:43.455Z,2.42
2022-09-30T13:30:34.612Z,2.10
2022-09-30T13:33:22.305Z,1.30
2022-09-30T13:35:53.398Z,1.20
2022-09-30T13:38:24.469Z,1.15
2022-09-30T13:41:03.038Z,1.30
2022-09-30T13:43:34.521Z,1.15
2022-09-30T13:46:08.365Z,1.52
2022-09-30T13:48:38.282Z,1.20
2022-09-30T13:51:09.405Z,1.10
2022-09-30T13:53:39.296Z,1.50
2022-09-30T13:56:09.473Z,1.30
2022-09-30T13:58:46.844Z,1.30
2022-09-30T14:01:21.396Z,1.15
2022-09-30T14:03:57.790Z,1.15
2022-09-30T14:06:36.879Z,1.50
2022-09-30T14:09:20.625Z,0.90
2022-09-30T14:11:59.315Z,1.40
2022-09-30T14:14:36.724Z,1.30
2022-09-30T14:17:15.294Z,1.05
2022-09-30T14:19:55.997Z,1.30
2022-09-30T14:22:27.707Z,1.20
2022-09-30T14:24:56.834Z,1.30
2022-09-30T14:27:46.541Z,1.50
2022-09-30T14:30:16.687Z,1.40
2022-09-30T14:32:47.508Z,1.40
2022-09-30T14:35:18.309Z,1.20
2022-09-30T14:37:49.877Z,1.33
2022-09-30T14:40:20.135Z,1.13
2022-09-30T14:42:50.013Z,1.45
2022-09-30T14:45:26.825Z,1.20
2022-09-30T14:47:56.865Z,1.33
2022-09-30T14:50:27.113Z,1.30
2022-09-30T14:52:58.788Z,1.25
2022-09-30T14:55:30.486Z,1.10
2022-09-30T14:58:18.289Z,1.20
2022-09-30T15:00:47.732Z,1.20
2022-09-30T15:03:16.751Z,1.45
2022-09-30T15:05:45.173Z,1.13
2022-09-30T15:08:19.165Z,1.40
2022-09-30T15:10:48.893Z,3.45
2022-09-30T15:13:17.497Z,1.40
2022-09-30T15:15:46.021Z,1.20
2022-09-30T15:18:24.840Z,1.05
2022-09-30T15:20:55.129Z,1.08
2022-09-30T15:23:29.621Z,1.17
2022-09-30T15:25:58.558Z,1.30
2022-09-30T15:28:27.383Z,1.25
2022-09-30T15:30:58.558Z,1.60
2022-09-30T15:33:29.086Z,1.10
2022-09-30T15:36:08.347Z,3.72
2022-09-30T15:38:39.357Z,1.70
2022-09-30T15:41:09.039Z,1.98
2022-09-30T15:43:39.743Z,2.55
2022-09-30T15:46:19.006Z,2.58
2022-09-30T15:48:47.993Z,2.80
2022-09-30T15:51:40.182Z,3.00
2022-09-30T15:54:27.080Z,2.83
2022-09-30T15:56:57.333Z,2.35
2022-09-30T15:59:49.381Z,2.22
2022-09-30T16:02:17.812Z,2.47
2022-09-30T16:04:53.334Z,1.92
2022-09-30T16:07:26.346Z,2.22
2022-09-30T16:09:56.068Z,2.15
2022-09-30T16:12:28.164Z,2.30
2022-09-30T16:14:57.798Z,2.50
2022-09-30T16:17:27.071Z,2.60
2022-09-30T16:19:57.560Z,2.70
2022-09-30T16:22:37.049Z,3.00
2022-09-30T16:25:11.652Z,2.92
2022-09-30T16:27:41.505Z,2.47
2022-09-30T16:30:14.893Z,2.22
2022-09-30T16:32:45.387Z,2.50
2022-09-30T16:35:21.004Z,2.60
2022-09-30T16:37:49.841Z,2.50
2022-09-30T16:40:20.795Z,2.95
2022-09-30T16:42:50.818Z,3.03
2022-09-30T16:45:19.540Z,3.22
2022-09-30T16:47:48.257Z,2.80
2022-09-30T16:50:18.882Z,3.17
2022-09-30T16:52:47.303Z,2.50
2022-09-30T16:57:51.157Z,2.63
2022-09-30T17:00:19.870Z,3.10
2022-09-30T17:02:48.961Z,2.90
2022-09-30T17:05:18.753Z,2.78
2022-09-30T17:07:47.460Z,2.85
2022-09-30T17:10:20.220Z,3.10
2022-09-30T17:12:50.291Z,2.67
2022-09-30T17:15:20.760Z,2.90
2022-09-30T17:17:52.830Z,3.42
2022-09-30T17:20:21.587Z,3.70
2022-09-30T17:22:50.085Z,3.70
2022-09-30T17:25:18.843Z,3.40
2022-09-30T17:27:50.061Z,3.60
2022-09-30T17:30:20.268Z,3.40
2022-09-30T17:32:48.828Z,3.42
2022-09-30T17:35:17.388Z,3.63
2022-09-30T17:37:46.671Z,3.58
2022-09-30T17:40:32.934Z,3.25
2022-09-30T17:43:11.546Z,3.80
2022-09-30T17:45:42.264Z,4.43
2022-09-30T17:48:11.382Z,4.13
2022-09-30T17:50:40.764Z,5.00
2022-09-30T17:53:09.237Z,6.43
2022-09-30T17:55:37.675Z,6.88
2022-09-30T17:58:06.114Z,7.38
2022-09-30T18:00:34.742Z,7.10
2022-09-30T18:03:04.523Z,6.22
2022-09-30T18:05:33.062Z,6.28
2022-09-30T18:08:01.509Z,6.35
2022-09-30T18:10:29.957Z,6.05
2022-09-30T18:12:59.725Z,6.47
2022-09-30T18:15:28.169Z,4.22
2022-09-30T18:17:56.696Z,5.00
2022-09-30T18:20:26.557Z,4.65
2022-09-30T18:22:55.051Z,4.97
2022-09-30T18:25:23.837Z,4.63
2022-09-30T18:27:53.032Z,4.60
2022-09-30T18:30:21.829Z,4.55
2022-09-30T18:32:50.589Z,3.60
2022-09-30T18:35:20.376Z,4.35
2022-09-30T18:37:50.889Z,4.28
2022-09-30T18:40:19.929Z,3.45
2022-09-30T18:42:49.168Z,3.30
2022-09-30T18:45:17.637Z,3.08
2022-09-30T18:47:46.213Z,2.80
2022-09-30T18:50:17.954Z,4.32
2022-09-30T18:52:46.400Z,4.68
2022-09-30T18:55:16.280Z,4.43
2022-09-30T18:57:47.901Z,4.35
2022-09-30T19:00:17.354Z,4.15
2022-09-30T19:02:46.097Z,3.92
2022-09-30T19:05:16.726Z,4.50
2022-09-30T19:07:45.185Z,4.65
2022-09-30T19:10:14.836Z,5.20
2022-09-30T19:12:45.526Z,5.68
2022-09-30T19:15:16.335Z,9.02
2022-09-30T19:17:44.934Z,12.00
2022-09-30T19:20:15.265Z,14.68
2022-09-30T19:22:43.882Z,16.88
2022-09-30T19:25:13.053Z,16.10
2022-09-30T19:27:42.437Z,14.20
2022-09-30T19:30:13.452Z,14.23
2022-09-30T19:32:42.080Z,12.65
2022-09-30T19:35:11.850Z,12.07
2022-09-30T19:37:45.412Z,12.10
2022-09-30T19:40:21.860Z,9.32
2022-09-30T19:42:51.278Z,11.18
2022-09-30T19:45:25.789Z,9.65
2022-09-30T19:47:54.821Z,8.45
2022-09-30T19:50:23.217Z,9.73
2022-09-30T19:52:57.278Z,9.05
2022-09-30T19:55:26.561Z,8.27
2022-09-30T19:57:55.121Z,9.07
2022-09-30T20:00:24.933Z,9.38
2022-09-30T20:02:53.433Z,8.70
2022-09-30T20:05:23.701Z,6.47
2022-09-30T20:07:52.113Z,5.50
2022-09-30T20:10:20.616Z,4.80
2022-09-30T20:12:49.017Z,5.13
2022-09-30T20:15:35.444Z,4.38
2022-09-30T20:18:05.491Z,4.10
2022-09-30T20:20:38.466Z,3.78
2022-09-30T20:23:06.915Z,3.53
2022-09-30T20:25:36.243Z,4.05
2022-09-30T20:28:05.186Z,3.90
2022-09-30T20:30:33.875Z,3.15
2022-09-30T20:33:02.663Z,4.13
2022-09-30T20:35:32.417Z,3.15
2022-09-30T20:38:00.863Z,2.78
2022-09-30T20:40:29.297Z,2.72
2022-09-30T20:43:01.338Z,2.38
2022-09-30T20:45:30.188Z,2.05
2022-09-30T20:47:58.642Z,1.77
2022-09-30T20:50:36.374Z,2.25
2022-09-30T20:53:08.383Z,1.73
2022-09-30T20:55:37.956Z,2.13
2022-09-30T20:58:06.946Z,1.55
2022-09-30T21:00:35.950Z,1.55
2022-09-30T21:03:04.383Z,1.70
2022-09-30T21:05:32.781Z,1.50
2022-09-30T21:08:02.123Z,1.52
2022-09-30T21:10:32.381Z,1.70
2022-09-30T21:13:01.268Z,1.40
2022-09-30T21:15:31.593Z,1.65
2022-09-30T21:17:59.987Z,1.95
2022-09-30T21:20:28.372Z,2.00
2022-09-30T21:22:56.774Z,2.03
2022-09-30T21:25:25.232Z,1.73
2022-09-30T21:27:55.084Z,2.08
2022-09-30T21:30:23.516Z,1.90
2022-09-30T21:32:51.901Z,1.95
2022-09-30T21:35:21.058Z,1.70
2022-09-30T21:37:50.259Z,1.60
2022-09-30T21:40:19.063Z,1.80
2022-09-30T21:42:47.688Z,1.55
2022-09-30T21:45:18.388Z,1.38
2022-09-30T21:47:46.789Z,1.50
2022-09-30T21:50:15.284Z,1.80
2022-09-30T21:52:43.692Z,1.60
2022-09-30T21:55:13.365Z,1.90
2022-09-30T21:57:41.773Z,1.80
2022-09-30T22:00:10.816Z,1.85
2022-09-30T22:02:40.814Z,1.60
2022-09-30T22:05:09.825Z,1.60
2022-09-30T22:07:38.868Z,1.63
2022-09-30T22:10:09.092Z,1.50
2022-09-30T22:12:38.266Z,1.50
2022-09-30T22:15:07.021Z,1.50
2022-09-30T22:17:35.420Z,1.40
2022-09-30T22:20:05.796Z,1.50
2022-09-30T22:22:34.710Z,1.70
2022-09-30T22:25:03.091Z,1.70
2022-09-30T22:27:32.831Z,1.70
2022-09-30T22:30:01.265Z,1.80
2022-09-30T22:32:29.726Z,1.42
2022-09-30T22:35:15.822Z,1.33
2022-09-30T22:38:02.273Z,1.63
2022-09-30T22:40:30.702Z,1.13
2022-09-30T22:42:59.104Z,0.98
2022-09-30T22:45:27.628Z,1.30
2022-09-30T22:47:56.950Z,1.33
2022-09-30T22:50:28.281Z,1.30
2022-09-30T22:52:58.103Z,1.30
2022-09-30T22:55:26.540Z,1.50
2022-09-30T22:57:54.949Z,1.75
2022-09-30T23:00:23.344Z,1.20
2022-09-30T23:02:52.903Z,1.42
2022-09-30T23:05:22.249Z,1.95
2022-09-30T23:07:50.657Z,1.40
2022-09-30T23:10:20.440Z,1.60
2022-09-30T23:12:50.502Z,2.20
2022-09-30T23:15:18.929Z,2.00
2022-09-30T23:17:47.871Z,1.65
2022-09-30T23:20:16.262Z,2.00
2022-09-30T23:22:44.639Z,1.83
2022-09-30T23:25:13.295Z,2.05
2022-09-30T23:27:43.117Z,1.92
2022-09-30T23:30:11.936Z,2.00
2022-09-30T23:32:40.319Z,1.90
2022-09-30T23:35:09.154Z,2.13
2022-09-30T23:37:37.537Z,1.92
2022-09-30T23:40:06.245Z,2.00
2022-09-30T23:42:34.638Z,2.17
2022-09-30T23:45:04.492Z,1.80
2022-09-30T23:47:32.908Z,1.83
2022-09-30T23:50:01.299Z,1.83
2022-09-30T23:52:29.968Z,2.33
2022-09-30T23:54:58.391Z,2.08
2022-09-30T23:57:26.860Z,2.30
2022-09-30T23:59:55.256Z,1.77
